createdAt,value
2022-10-17T00:02:38.616Z,3.42
2022-10-17T00:08:40.873Z,3.73
2022-10-17T00:14:42.295Z,3.40
2022-10-17T00:20:43.744Z,3.70
2022-10-17T00:26:45.251Z,3.60
2022-10-17T00:32:46.709Z,3.58
2022-10-17T00:38:50.234Z,4.10
2022-10-17T00:45:07.254Z,3.58
2022-10-17T00:51:09.063Z,3.50
2022-10-17T00:57:11.012Z,3.50
2022-10-17T01:03:12.557Z,3.88
2022-10-17T01:09:14.015Z,3.40
2022-10-17T01:15:34.105Z,3.50
2022-10-17T01:21:44.643Z,3.40
2022-10-17T01:27:47.640Z,3.50
2022-10-17T01:34:12.699Z,3.42
2022-10-17T01:40:33.950Z,2.93
2022-10-17T01:46:39.751Z,2.83
2022-10-17T01:52:44.908Z,3.47
2022-10-17T01:58:48.955Z,2.87
2022-10-17T02:04:51.417Z,3.20
2022-10-17T02:10:58.257Z,3.23
2022-10-17T02:17:07.862Z,3.70
2022-10-17T02:23:12.088Z,3.17
2022-10-17T02:29:19.380Z,3.33
2022-10-17T02:35:22.292Z,3.30
2022-10-17T02:41:24.523Z,3.20
2022-10-17T02:47:29.297Z,3.00
2022-10-17T02:53:45.443Z,2.97
2022-10-17T02:59:47.501Z,2.70
2022-10-17T03:05:49.422Z,2.97
2022-10-17T03:11:51.092Z,3.07
2022-10-17T03:17:53.910Z,2.95
2022-10-17T03:23:55.617Z,2.70
2022-10-17T03:29:58.597Z,2.50
2022-10-17T03:36:04.572Z,2.60
2022-10-17T03:42:06.091Z,2.70
2022-10-17T03:48:08.115Z,2.50
2022-10-17T03:54:09.751Z,2.60
2022-10-17T04:00:11.864Z,2.40
2022-10-17T04:06:16.532Z,2.50
2022-10-17T04:12:19.336Z,2.40
2022-10-17T04:18:21.371Z,2.38
2022-10-17T04:24:22.958Z,2.70
2022-10-17T04:30:30.374Z,2.50
2022-10-17T04:36:32.001Z,2.40
2022-10-17T04:42:33.670Z,2.80
2022-10-17T04:48:35.322Z,2.55
2022-10-17T04:54:36.851Z,2.58
2022-10-17T05:00:44.094Z,2.40
2022-10-17T05:06:49.487Z,2.40
2022-10-17T05:13:12.742Z,2.47
2022-10-17T05:19:15.552Z,2.85
2022-10-17T05:25:21.931Z,2.60
2022-10-17T05:31:24.515Z,2.40
2022-10-17T05:37:26.287Z,2.88
2022-10-17T05:43:31.255Z,2.70
2022-10-17T05:49:45.183Z,2.33
2022-10-17T05:55:57.530Z,2.58
2022-10-17T06:01:59.346Z,2.53
2022-10-17T06:08:02.136Z,2.20
2022-10-17T06:14:05.925Z,2.47
2022-10-17T06:20:07.909Z,2.65
2022-10-17T06:26:09.803Z,2.72
2022-10-17T06:32:14.927Z,2.67
2022-10-17T06:38:19.447Z,2.65
2022-10-17T06:44:22.220Z,2.70
2022-10-17T06:50:43.634Z,3.50
2022-10-17T06:56:48.598Z,2.20
2022-10-17T07:03:05.221Z,2.33
2022-10-17T07:09:06.993Z,3.38
2022-10-17T07:15:11.270Z,2.30
2022-10-17T07:21:13.206Z,2.40
2022-10-17T07:27:15.527Z,2.10
2022-10-17T07:33:17.111Z,2.40
2022-10-17T07:39:19.394Z,2.00
2022-10-17T07:45:20.907Z,2.10
2022-10-17T07:51:22.856Z,2.20
2022-10-17T07:57:24.297Z,1.85
2022-10-17T08:03:25.746Z,1.90
2022-10-17T08:09:27.174Z,2.25
2022-10-17T08:15:31.722Z,2.00
2022-10-17T08:21:33.801Z,2.33
2022-10-17T08:27:35.656Z,2.10
2022-10-17T08:33:37.480Z,2.30
2022-10-17T08:39:39.211Z,2.00
2022-10-17T08:45:45.964Z,2.27
2022-10-17T08:51:53.930Z,2.10
2022-10-17T08:57:55.395Z,1.98
2022-10-17T09:03:59.668Z,1.80
2022-10-17T09:10:04.372Z,1.90
2022-10-17T09:16:07.443Z,1.90
2022-10-17T09:22:10.779Z,2.10
2022-10-17T09:28:23.537Z,2.13
2022-10-17T09:34:27.456Z,2.20
2022-10-17T09:40:32.720Z,2.00
2022-10-17T09:46:36.913Z,2.13
2022-10-17T09:52:40.324Z,2.10
2022-10-17T09:58:46.165Z,2.35
2022-10-17T10:05:04.114Z,1.97
2022-10-17T10:11:13.367Z,1.90
2022-10-17T10:17:26.490Z,2.40
2022-10-17T10:23:27.927Z,2.28
2022-10-17T10:29:36.765Z,1.88
2022-10-17T10:35:38.494Z,1.87
2022-10-17T10:41:49.386Z,2.25
2022-10-17T10:48:00.956Z,2.37
2022-10-17T10:54:11.083Z,2.30
2022-10-17T11:00:15.472Z,2.03
2022-10-17T11:06:20.324Z,2.20
2022-10-17T11:12:34.369Z,2.10
2022-10-17T11:18:42.030Z,2.50
2022-10-17T11:24:48.655Z,2.25
2022-10-17T11:30:52.416Z,2.30
2022-10-17T11:36:59.044Z,2.10
2022-10-17T11:43:05.402Z,2.03
2022-10-17T11:49:20.157Z,1.90
2022-10-17T11:55:23.320Z,2.00
2022-10-17T12:01:29.125Z,2.10
2022-10-17T12:07:30.904Z,2.10
2022-10-17T12:13:32.682Z,2.25
2022-10-17T12:19:37.447Z,2.13
2022-10-17T12:25:49.948Z,2.10
2022-10-17T12:31:51.460Z,2.20
2022-10-17T12:37:57.320Z,2.13
2022-10-17T12:44:00.314Z,2.13
2022-10-17T12:50:01.833Z,2.60
2022-10-17T12:56:03.379Z,2.50
2022-10-17T13:02:08.975Z,2.40
2022-10-17T13:08:15.491Z,2.90
2022-10-17T13:14:18.704Z,2.65
2022-10-17T13:20:25.547Z,3.10
2022-10-17T13:26:30.465Z,2.90
2022-10-17T13:32:37.100Z,3.22
2022-10-17T13:38:41.753Z,2.50
2022-10-17T13:44:44.271Z,3.20
2022-10-17T13:50:47.710Z,3.00
2022-10-17T14:03:01.788Z,2.50
2022-10-17T14:09:07.504Z,2.47
2022-10-17T14:15:13.094Z,2.53
2022-10-17T14:21:42.953Z,2.60
2022-10-17T14:28:03.058Z,2.50
2022-10-17T14:34:04.982Z,2.28
2022-10-17T14:40:07.173Z,2.20
2022-10-17T14:46:14.375Z,2.17
2022-10-17T14:52:18.168Z,2.22
2022-10-17T14:58:25.140Z,2.43
2022-10-17T15:04:26.706Z,3.10
2022-10-17T15:10:31.995Z,2.40
2022-10-17T15:16:34.799Z,2.20
2022-10-17T15:22:36.560Z,2.00
2022-10-17T15:28:38.077Z,2.33
2022-10-17T15:34:39.715Z,2.47
2022-10-17T15:40:41.209Z,4.83
2022-10-17T15:46:42.795Z,2.80
2022-10-17T15:52:44.414Z,2.97
2022-10-17T15:58:45.977Z,2.53
2022-10-17T16:04:48.501Z,2.70
2022-10-17T16:10:50.375Z,3.23
2022-10-17T16:16:51.821Z,3.38
2022-10-17T16:22:59.478Z,3.78
2022-10-17T16:29:03.437Z,3.30
2022-10-17T16:35:05.852Z,3.60
2022-10-17T16:41:20.240Z,3.87
2022-10-17T16:47:21.705Z,3.70
2022-10-17T16:53:23.153Z,3.80
2022-10-17T16:59:24.683Z,3.60
2022-10-17T17:05:26.193Z,3.97
2022-10-17T17:11:28.143Z,3.57
2022-10-17T17:17:44.543Z,3.80
2022-10-17T17:23:50.540Z,3.50
2022-10-17T17:29:52.007Z,3.73
2022-10-17T17:36:00.652Z,3.95
2022-10-17T17:42:02.185Z,3.20
2022-10-17T17:48:03.703Z,3.53
2022-10-17T17:54:05.313Z,3.58
2022-10-17T18:00:07.102Z,3.50
2022-10-17T18:06:08.782Z,4.22
2022-10-17T18:12:17.781Z,3.87
2022-10-17T18:18:19.291Z,4.38
2022-10-17T18:24:20.786Z,4.00
2022-10-17T18:30:25.506Z,7.67
2022-10-17T18:36:29.249Z,4.50
2022-10-17T18:42:31.034Z,3.73
2022-10-17T18:48:33.169Z,5.45
2022-10-17T18:54:34.698Z,6.90
2022-10-17T19:00:37.028Z,6.80
2022-10-17T19:06:38.878Z,5.78
2022-10-17T19:12:40.449Z,5.90
2022-10-17T19:18:41.915Z,6.18
2022-10-17T19:24:43.366Z,6.80
2022-10-17T19:30:44.810Z,5.87
2022-10-17T19:36:46.255Z,5.88
2022-10-17T19:42:47.726Z,6.07
2022-10-17T19:48:49.760Z,6.40
2022-10-17T19:54:51.219Z,5.82
2022-10-17T20:00:54.547Z,6.07
2022-10-17T20:06:59.710Z,5.97
2022-10-17T20:13:01.181Z,5.80
2022-10-17T20:19:10.163Z,5.22
2022-10-17T20:25:11.605Z,5.30
2022-10-17T20:31:13.796Z,5.13
2022-10-17T20:37:15.240Z,4.97
2022-10-17T20:43:16.704Z,5.30
2022-10-17T20:49:18.878Z,4.00
2022-10-17T20:55:20.451Z,4.43
2022-10-17T21:01:22.535Z,4.23
2022-10-17T21:07:25.251Z,4.55
2022-10-17T21:13:26.721Z,4.30
2022-10-17T21:19:28.172Z,4.28
2022-10-17T21:25:30.551Z,3.95
2022-10-17T21:31:32.921Z,4.27
2022-10-17T21:37:34.500Z,4.18
2022-10-17T21:43:36.501Z,3.90
2022-10-17T21:49:38.341Z,3.67
2022-10-17T21:55:39.855Z,4.13
2022-10-17T22:01:42.481Z,4.50
2022-10-17T22:07:43.958Z,3.88
2022-10-17T22:13:45.623Z,3.90
2022-10-17T22:19:47.270Z,3.53
2022-10-17T22:25:55.184Z,4.00
2022-10-17T22:31:56.606Z,4.03
2022-10-17T22:37:58.042Z,4.25
2022-10-17T22:43:59.504Z,4.40
2022-10-17T22:50:00.940Z,4.35
2022-10-17T22:56:04.228Z,4.25
2022-10-17T23:02:05.664Z,3.97
2022-10-17T23:08:07.124Z,4.60
2022-10-17T23:14:08.572Z,4.07
2022-10-17T23:20:10.300Z,4.60
2022-10-17T23:26:13.228Z,4.30
2022-10-17T23:32:14.678Z,3.83
2022-10-17T23:38:16.108Z,4.55
2022-10-17T23:44:17.559Z,4.37
2022-10-17T23:50:19.228Z,3.88
2022-10-17T23:56:20.678Z,4.38
